FDX20N SBGR-LPPT
Flight info
| Callsign | FDX20N |
|---|---|
| Flight time | N/A |
| Altitude | 29000 |
| Route | AMVUL6A NUXEL UZ23 ILPIR UZ72 EKUMU/N0503F310 UZ72 EDNES UN866 CRUDE/N0497F330 UN866 DEKON/N0496F320 UN866 AMDOL/N0489F330 UN866 TENPA/N0483F350 N866 GOMER/N0475F340 N866 BRICK/N0473F360 N866 KONBA UN866 BEXAL DCT LUVUP LUVUP2A |
| Aircraft | MD11/H-SDE1E2E3FGHIJ2J3J4J5M1RWXY/LB1D1 |
Departure
| Time | 2026-05-04 10:49 |
|---|---|
| Airport | São Paulo/Guarulhos–Governor André Franco Montoro International Airport (SBGR) |
Arrival
| Time | N/A |
|---|---|
| Airport | Lisbon Humberto Delgado Airport (LPPT) |
| Time | Latitude | Longitude | Altitude | Speed | Heading |
|---|---|---|---|---|---|
| 2026-05-04 10:20 | -23.42756 | -46.48821 | 2463 ft | 0 kts | 274° |
| 2026-05-04 10:39 | -23.42762 | -46.48767 | 2463 ft | 3 kts | 263° |
| 2026-05-04 10:39 | -23.42759 | -46.48750 | 2463 ft | 3 kts | 230° |
| 2026-05-04 10:39 | -23.42749 | -46.48740 | 2469 ft | 3 kts | 194° |
| 2026-05-04 10:40 | -23.42729 | -46.48736 | 2463 ft | 3 kts | 185° |
| 2026-05-04 10:40 | -23.42720 | -46.48735 | 2463 ft | 0 kts | 186° |
| 2026-05-04 10:44 | -23.42977 | -46.48763 | 2468 ft | 14 kts | 187° |
| 2026-05-04 10:45 | -23.43082 | -46.48774 | 2465 ft | 15 kts | 185° |
| 2026-05-04 10:45 | -23.43152 | -46.48759 | 2469 ft | 9 kts | 137° |
| 2026-05-04 10:45 | -23.43169 | -46.48702 | 2469 ft | 8 kts | 98° |
| 2026-05-04 10:45 | -23.43175 | -46.48642 | 2467 ft | 8 kts | 96° |
| 2026-05-04 10:46 | -23.43181 | -46.48579 | 2466 ft | 9 kts | 96° |
| 2026-05-04 10:46 | -23.43188 | -46.48510 | 2462 ft | 10 kts | 96° |
| 2026-05-04 10:46 | -23.43197 | -46.48435 | 2465 ft | 10 kts | 104° |
| 2026-05-04 10:46 | -23.43241 | -46.48388 | 2466 ft | 9 kts | 152° |
| 2026-05-04 10:47 | -23.43296 | -46.48365 | 2465 ft | 8 kts | 161° |
| 2026-05-04 10:47 | -23.43352 | -46.48345 | 2466 ft | 9 kts | 162° |
| 2026-05-04 10:47 | -23.43408 | -46.48319 | 2463 ft | 8 kts | 143° |
| 2026-05-04 10:47 | -23.43414 | -46.48279 | 2465 ft | 0 kts | 74° |
| 2026-05-04 10:49 | -23.41973 | -46.42747 | 3594 ft | 201 kts | 79° |
| 2026-05-04 10:49 | -23.41652 | -46.41286 | 4356 ft | 199 kts | 78° |
| 2026-05-04 10:50 | -23.41329 | -46.39818 | 4820 ft | 206 kts | 79° |
| 2026-05-04 10:51 | -23.35681 | -46.28564 | 6640 ft | 286 kts | 57° |
| 2026-05-04 10:52 | -23.34554 | -46.26716 | 6768 ft | 301 kts | 58° |
| 2026-05-04 10:52 | -23.33376 | -46.24748 | 7005 ft | 320 kts | 58° |
| 2026-05-04 10:52 | -23.32160 | -46.22693 | 7610 ft | 325 kts | 58° |
| 2026-05-04 10:54 | -23.23131 | -46.07217 | 11324 ft | 376 kts | 57° |
| 2026-05-04 10:54 | -23.21528 | -46.04948 | 11821 ft | 381 kts | 45° |
| 2026-05-04 10:56 | -23.03438 | -45.99428 | 15166 ft | 406 kts | 2° |
| 2026-05-04 10:56 | -23.00613 | -45.99141 | 15586 ft | 410 kts | 2° |
| 2026-05-04 10:56 | -22.97768 | -45.98828 | 16009 ft | 413 kts | 2° |
| 2026-05-04 10:57 | -22.94899 | -45.98495 | 16446 ft | 416 kts | 2° |
| 2026-05-04 10:57 | -22.92004 | -45.98149 | 16770 ft | 421 kts | 3° |
| 2026-05-04 10:57 | -22.89087 | -45.97764 | 17199 ft | 425 kts | 5° |
| 2026-05-04 10:57 | -22.86169 | -45.97179 | 17623 ft | 429 kts | 9° |
| 2026-05-04 10:58 | -22.83246 | -45.96451 | 18046 ft | 433 kts | 10° |
| 2026-05-04 10:58 | -22.80310 | -45.95665 | 18404 ft | 437 kts | 11° |
| 2026-05-04 10:58 | -22.77352 | -45.94865 | 18768 ft | 439 kts | 10° |
| 2026-05-04 10:58 | -22.74381 | -45.94069 | 19142 ft | 440 kts | 10° |
| 2026-05-04 10:59 | -22.71398 | -45.93283 | 19518 ft | 442 kts | 10° |
| 2026-05-04 10:59 | -22.68402 | -45.92502 | 19863 ft | 444 kts | 9° |
| 2026-05-04 10:59 | -22.65396 | -45.91725 | 20213 ft | 445 kts | 9° |
| 2026-05-04 10:59 | -22.62601 | -45.91004 | 20534 ft | 446 kts | 9° |
| 2026-05-04 11:00 | -22.59556 | -45.90220 | 20883 ft | 448 kts | 9° |
| 2026-05-04 11:01 | -22.39284 | -45.85010 | 23204 ft | 460 kts | 8° |
| 2026-05-04 11:02 | -22.36578 | -45.84316 | 23564 ft | 461 kts | 9° |
| 2026-05-04 11:02 | -22.33443 | -45.83512 | 23898 ft | 463 kts | 8° |
| 2026-05-04 11:05 | -21.95574 | -45.54099 | 28200 ft | 503 kts | 33° |
| 2026-05-04 11:06 | -21.92829 | -45.51753 | 28492 ft | 505 kts | 33° |
| 2026-05-04 11:06 | -21.90075 | -45.49399 | 28785 ft | 506 kts | 33° |
| 2026-05-04 11:06 | -21.87303 | -45.47031 | 28937 ft | 512 kts | 33° |
| 2026-05-04 11:06 | -21.84493 | -45.44634 | 28967 ft | 518 kts | 33° |
| 2026-05-04 11:08 | -21.64356 | -45.27464 | 28970 ft | 533 kts | 33° |
| 2026-05-04 11:10 | -21.43991 | -45.09977 | 28975 ft | 537 kts | 34° |
| 2026-05-04 11:12 | -21.20685 | -44.89972 | 28968 ft | 537 kts | 34° |
| 2026-05-04 11:12 | -21.14830 | -44.84987 | 28966 ft | 537 kts | 34° |
| 2026-05-04 11:13 | -21.08965 | -44.80025 | 28969 ft | 537 kts | 34° |
| 2026-05-04 11:13 | -21.03056 | -44.75146 | 28969 ft | 536 kts | 32° |
| 2026-05-04 11:16 | -20.72909 | -44.52183 | 28968 ft | 516 kts | 30° |
| 2026-05-04 11:16 | -20.66993 | -44.47693 | 28965 ft | 525 kts | 30° |
| 2026-05-04 11:17 | -20.61016 | -44.43153 | 28983 ft | 530 kts | 30° |
| 2026-05-04 11:19 | -20.36885 | -44.24626 | 28968 ft | 538 kts | 32° |
| 2026-05-04 11:19 | -20.30897 | -44.19852 | 28966 ft | 538 kts | 32° |
| 2026-05-04 11:20 | -20.25914 | -44.15889 | 28967 ft | 538 kts | 32° |
| 2026-05-04 11:20 | -20.19899 | -44.11123 | 28966 ft | 538 kts | 32° |
| 2026-05-04 11:22 | -19.95802 | -43.92126 | 28994 ft | 539 kts | 32° |
| 2026-05-04 11:23 | -19.89773 | -43.87386 | 28991 ft | 539 kts | 32° |
| 2026-05-04 11:25 | -19.68265 | -43.71550 | 28985 ft | 538 kts | 30° |
| 2026-05-04 11:25 | -19.62073 | -43.67078 | 28982 ft | 538 kts | 30° |
| 2026-05-04 11:27 | -19.34266 | -43.47010 | 28966 ft | 536 kts | 31° |
| 2026-05-04 11:28 | -19.27830 | -43.43128 | 28967 ft | 528 kts | 18° |
| 2026-05-04 11:28 | -19.20891 | -43.40721 | 28962 ft | 524 kts | 11° |
| 2026-05-04 11:29 | -19.13926 | -43.38615 | 28966 ft | 524 kts | 12° |
| 2026-05-04 11:29 | -19.06959 | -43.36299 | 28962 ft | 525 kts | 14° |
| 2026-05-04 11:33 | -18.58228 | -43.19445 | 28963 ft | 526 kts | 13° |
| 2026-05-04 11:33 | -18.51230 | -43.17161 | 28957 ft | 526 kts | 14° |
| 2026-05-04 11:34 | -18.44234 | -43.14869 | 28969 ft | 527 kts | 14° |
| 2026-05-04 11:34 | -18.37251 | -43.12509 | 28966 ft | 528 kts | 16° |
| 2026-05-04 11:35 | -18.30346 | -43.09860 | 28969 ft | 529 kts | 18° |
| 2026-05-04 11:35 | -18.23466 | -43.07121 | 28973 ft | 529 kts | 17° |
| 2026-05-04 11:36 | -18.16580 | -43.04407 | 28970 ft | 529 kts | 17° |
| 2026-05-04 11:36 | -18.09726 | -43.01732 | 28961 ft | 528 kts | 17° |
| 2026-05-04 11:37 | -18.02833 | -42.99050 | 28970 ft | 528 kts | 17° |
| 2026-05-04 11:37 | -17.95940 | -42.96367 | 28967 ft | 528 kts | 17° |
| 2026-05-04 11:38 | -17.89048 | -42.93686 | 28969 ft | 528 kts | 17° |
| 2026-05-04 11:38 | -17.82158 | -42.91008 | 28968 ft | 528 kts | 17° |
| 2026-05-04 11:39 | -17.75258 | -42.88329 | 28962 ft | 528 kts | 17° |
| 2026-05-04 11:41 | -17.51172 | -42.78862 | 28959 ft | 528 kts | 18° |
| 2026-05-04 11:41 | -17.44302 | -42.76117 | 28957 ft | 528 kts | 18° |
| 2026-05-04 11:42 | -17.37412 | -42.73451 | 28958 ft | 528 kts | 18° |
| 2026-05-04 11:42 | -17.30524 | -42.70806 | 28959 ft | 527 kts | 18° |
| 2026-05-04 11:43 | -17.23636 | -42.68155 | 28951 ft | 527 kts | 18° |
| 2026-05-04 11:43 | -17.16747 | -42.65502 | 28953 ft | 527 kts | 18° |
| 2026-05-04 11:44 | -17.09861 | -42.62850 | 28947 ft | 527 kts | 18° |
| 2026-05-04 11:44 | -17.02976 | -42.60201 | 28951 ft | 527 kts | 18° |
| 2026-05-04 11:45 | -16.96088 | -42.57553 | 28947 ft | 527 kts | 18° |
| 2026-05-04 11:45 | -16.89200 | -42.54907 | 28940 ft | 527 kts | 18° |
| 2026-05-04 11:46 | -16.82364 | -42.52284 | 28941 ft | 527 kts | 18° |
| 2026-05-04 11:46 | -16.75480 | -42.49644 | 28954 ft | 527 kts | 18° |
| 2026-05-04 11:47 | -16.68602 | -42.46986 | 28952 ft | 527 kts | 19° |
| 2026-05-04 11:47 | -16.61937 | -42.44284 | 29537 ft | 501 kts | 19° |
| 2026-05-04 11:47 | -16.58724 | -42.43006 | 30581 ft | 494 kts | 18° |
| 2026-05-04 11:48 | -16.55512 | -42.41756 | 30852 ft | 494 kts | 18° |
| 2026-05-04 11:48 | -16.48999 | -42.39263 | 30938 ft | 504 kts | 18° |
| 2026-05-04 11:49 | -16.42379 | -42.36732 | 30941 ft | 510 kts | 18° |
| 2026-05-04 11:49 | -16.35680 | -42.34162 | 30935 ft | 515 kts | 18° |
| 2026-05-04 11:50 | -16.28935 | -42.31570 | 30936 ft | 518 kts | 18° |
| 2026-05-04 11:50 | -16.22153 | -42.28967 | 30938 ft | 520 kts | 18° |
| 2026-05-04 11:51 | -16.15368 | -42.26300 | 30940 ft | 523 kts | 21° |
| 2026-05-04 11:51 | -16.08749 | -42.23129 | 30940 ft | 525 kts | 24° |
| 2026-05-04 11:52 | -16.02200 | -42.19738 | 30939 ft | 526 kts | 25° |
| 2026-05-04 11:52 | -15.95630 | -42.16369 | 30938 ft | 527 kts | 24° |
| 2026-05-04 11:53 | -15.89036 | -42.13040 | 30936 ft | 527 kts | 24° |
| 2026-05-04 11:53 | -15.82425 | -42.09719 | 30935 ft | 528 kts | 24° |
| 2026-05-04 11:55 | -15.55969 | -41.96435 | 30934 ft | 528 kts | 24° |
| 2026-05-04 11:56 | -15.49348 | -41.93116 | 30935 ft | 528 kts | 24° |
| 2026-05-04 11:56 | -15.42730 | -41.89800 | 30935 ft | 528 kts | 24° |
| 2026-05-04 11:57 | -15.36110 | -41.86486 | 30933 ft | 528 kts | 24° |
| 2026-05-04 11:57 | -15.29493 | -41.83170 | 30928 ft | 528 kts | 25° |
| 2026-05-04 11:58 | -15.22924 | -41.79876 | 30929 ft | 528 kts | 25° |
| 2026-05-04 11:58 | -15.16304 | -41.76558 | 30928 ft | 529 kts | 25° |
| 2026-05-04 11:59 | -15.09684 | -41.73243 | 30924 ft | 529 kts | 25° |
| 2026-05-04 11:59 | -15.03058 | -41.69928 | 30921 ft | 529 kts | 25° |
| 2026-05-04 12:00 | -14.96438 | -41.66617 | 30918 ft | 529 kts | 25° |
| 2026-05-04 12:00 | -14.89813 | -41.63307 | 30919 ft | 529 kts | 25° |
| 2026-05-04 12:01 | -14.83189 | -41.60000 | 30913 ft | 529 kts | 25° |
| 2026-05-04 12:02 | -14.59999 | -41.48431 | 30912 ft | 529 kts | 25° |
| 2026-05-04 12:03 | -14.53420 | -41.45138 | 30911 ft | 529 kts | 25° |
| 2026-05-04 12:03 | -14.46799 | -41.41823 | 30909 ft | 529 kts | 25° |
| 2026-05-04 12:04 | -14.40182 | -41.38513 | 30906 ft | 529 kts | 25° |
| 2026-05-04 12:04 | -14.33566 | -41.35205 | 30902 ft | 528 kts | 25° |
| 2026-05-04 12:05 | -14.26950 | -41.31901 | 30900 ft | 528 kts | 25° |
| 2026-05-04 12:05 | -14.20330 | -41.28596 | 30900 ft | 528 kts | 25° |
| 2026-05-04 12:06 | -14.13717 | -41.25297 | 30900 ft | 528 kts | 25° |
| 2026-05-04 12:06 | -14.07103 | -41.22000 | 30899 ft | 528 kts | 25° |
| 2026-05-04 12:07 | -14.00488 | -41.18704 | 30899 ft | 528 kts | 25° |
| 2026-05-04 12:07 | -13.93873 | -41.15411 | 30899 ft | 528 kts | 25° |
| 2026-05-04 12:08 | -13.87316 | -41.12012 | 30900 ft | 528 kts | 26° |
| 2026-05-04 12:08 | -13.80752 | -41.08636 | 30912 ft | 527 kts | 25° |
| 2026-05-04 12:09 | -13.74142 | -41.05362 | 30904 ft | 527 kts | 25° |
| 2026-05-04 12:09 | -13.68645 | -41.02657 | 30899 ft | 527 kts | 25° |
| 2026-05-04 12:10 | -13.60965 | -40.98866 | 30902 ft | 527 kts | 25° |
| 2026-05-04 12:10 | -13.54362 | -40.95600 | 30899 ft | 526 kts | 25° |
| 2026-05-04 12:11 | -13.48832 | -40.92866 | 30899 ft | 526 kts | 25° |
| 2026-05-04 12:11 | -13.42229 | -40.89605 | 30900 ft | 526 kts | 25° |
| 2026-05-04 12:12 | -13.35633 | -40.86349 | 30897 ft | 526 kts | 25° |
| 2026-05-04 12:12 | -13.29040 | -40.83096 | 30893 ft | 526 kts | 25° |
| 2026-05-04 12:14 | -13.02715 | -40.70132 | 30887 ft | 525 kts | 25° |
| 2026-05-04 12:15 | -12.96138 | -40.66895 | 30885 ft | 524 kts | 25° |
| 2026-05-04 12:15 | -12.89563 | -40.63660 | 30887 ft | 524 kts | 25° |
| 2026-05-04 12:16 | -12.82987 | -40.60427 | 30886 ft | 524 kts | 25° |
| 2026-05-04 12:16 | -12.76409 | -40.57195 | 30883 ft | 524 kts | 25° |
| 2026-05-04 12:17 | -12.69830 | -40.53971 | 30879 ft | 524 kts | 25° |
| 2026-05-04 12:17 | -12.63241 | -40.50763 | 30878 ft | 525 kts | 25° |
| 2026-05-04 12:18 | -12.56646 | -40.47556 | 30877 ft | 525 kts | 25° |
| 2026-05-04 12:18 | -12.50046 | -40.44346 | 30876 ft | 525 kts | 25° |
| 2026-05-04 12:19 | -12.43455 | -40.41140 | 30876 ft | 525 kts | 25° |
| 2026-05-04 12:19 | -12.36854 | -40.37932 | 30871 ft | 525 kts | 25° |
| 2026-05-04 12:20 | -12.30253 | -40.34725 | 30875 ft | 525 kts | 25° |
| 2026-05-04 12:20 | -12.23655 | -40.31522 | 30872 ft | 525 kts | 25° |
| 2026-05-04 12:21 | -12.17049 | -40.28316 | 30876 ft | 525 kts | 25° |
| 2026-05-04 12:21 | -12.10443 | -40.25113 | 30875 ft | 526 kts | 25° |
| 2026-05-04 12:22 | -12.03833 | -40.21909 | 30872 ft | 526 kts | 25° |
| 2026-05-04 12:22 | -11.97223 | -40.18705 | 30874 ft | 526 kts | 25° |
| 2026-05-04 12:23 | -11.90627 | -40.15474 | 30874 ft | 526 kts | 26° |
| 2026-05-04 12:23 | -11.84039 | -40.12220 | 30873 ft | 526 kts | 26° |
| 2026-05-04 12:24 | -11.77497 | -40.08989 | 30870 ft | 526 kts | 26° |
| 2026-05-04 12:24 | -11.70912 | -40.05742 | 30870 ft | 525 kts | 26° |
| 2026-05-04 12:25 | -11.64325 | -40.02498 | 30870 ft | 525 kts | 26° |
| 2026-05-04 12:25 | -11.57743 | -39.99270 | 30867 ft | 525 kts | 25° |
| 2026-05-04 12:26 | -11.51140 | -39.96080 | 30865 ft | 525 kts | 25° |
| 2026-05-04 12:26 | -11.44533 | -39.92899 | 30863 ft | 525 kts | 25° |
| 2026-05-04 12:27 | -11.37932 | -39.89719 | 30860 ft | 525 kts | 25° |
| 2026-05-04 12:27 | -11.31330 | -39.86536 | 30859 ft | 525 kts | 25° |
| 2026-05-04 12:28 | -11.24731 | -39.83357 | 30858 ft | 524 kts | 25° |
| 2026-05-04 12:28 | -11.18138 | -39.80182 | 30859 ft | 524 kts | 25° |
| 2026-05-04 12:29 | -11.11546 | -39.77010 | 30853 ft | 524 kts | 25° |
| 2026-05-04 12:29 | -11.04951 | -39.73837 | 30854 ft | 524 kts | 25° |
| 2026-05-04 12:30 | -10.98362 | -39.70669 | 30855 ft | 524 kts | 25° |
| 2026-05-04 12:30 | -10.91770 | -39.67502 | 30858 ft | 524 kts | 25° |
| 2026-05-04 12:31 | -10.85181 | -39.64336 | 30853 ft | 524 kts | 25° |
| 2026-05-04 12:31 | -10.78609 | -39.61149 | 30855 ft | 523 kts | 25° |
| 2026-05-04 12:32 | -10.68764 | -39.56337 | 30850 ft | 523 kts | 25° |
| 2026-05-04 12:33 | -10.62202 | -39.53129 | 30853 ft | 523 kts | 25° |
| 2026-05-04 12:33 | -10.55633 | -39.49923 | 30856 ft | 523 kts | 25° |
| 2026-05-04 12:34 | -10.49072 | -39.46725 | 30856 ft | 523 kts | 25° |
| 2026-05-04 12:34 | -10.42502 | -39.43523 | 30855 ft | 524 kts | 25° |
| 2026-05-04 12:35 | -10.35929 | -39.40340 | 30852 ft | 524 kts | 25° |
| 2026-05-04 12:35 | -10.29341 | -39.37163 | 30853 ft | 524 kts | 25° |
| 2026-05-04 12:36 | -10.22759 | -39.33993 | 30849 ft | 524 kts | 25° |
| 2026-05-04 12:36 | -10.16181 | -39.30832 | 30847 ft | 523 kts | 25° |
| 2026-05-04 12:37 | -10.09641 | -39.27690 | 30844 ft | 523 kts | 24° |
| 2026-05-04 12:37 | -10.03056 | -39.24527 | 30842 ft | 523 kts | 24° |
| 2026-05-04 12:38 | -9.96471 | -39.21365 | 30842 ft | 524 kts | 24° |
| 2026-05-04 12:38 | -9.89885 | -39.18204 | 30841 ft | 524 kts | 24° |
| 2026-05-04 12:39 | -9.83290 | -39.15070 | 30834 ft | 524 kts | 24° |
| 2026-05-04 12:39 | -9.76650 | -39.12012 | 30831 ft | 524 kts | 23° |
| 2026-05-04 12:40 | -9.70002 | -39.08974 | 30833 ft | 524 kts | 23° |
| 2026-05-04 12:40 | -9.63358 | -39.05930 | 30829 ft | 524 kts | 23° |
| 2026-05-04 12:41 | -9.56713 | -39.02880 | 30832 ft | 524 kts | 23° |
| 2026-05-04 12:41 | -9.50068 | -38.99831 | 30829 ft | 524 kts | 23° |
| 2026-05-04 12:42 | -9.43420 | -38.96782 | 30830 ft | 525 kts | 23° |
| 2026-05-04 12:42 | -9.36771 | -38.93734 | 30825 ft | 525 kts | 23° |
| 2026-05-04 12:43 | -9.30120 | -38.90686 | 30827 ft | 525 kts | 23° |
| 2026-05-04 12:43 | -9.23465 | -38.87638 | 30823 ft | 525 kts | 23° |
| 2026-05-04 12:44 | -9.16812 | -38.84591 | 30823 ft | 525 kts | 23° |
| 2026-05-04 12:44 | -9.10151 | -38.81542 | 30819 ft | 525 kts | 23° |
| 2026-05-04 12:45 | -9.03508 | -38.78454 | 30820 ft | 525 kts | 24° |
| 2026-05-04 12:45 | -8.96878 | -38.75334 | 30821 ft | 525 kts | 24° |
| 2026-05-04 12:46 | -8.90253 | -38.72217 | 30818 ft | 525 kts | 24° |
| 2026-05-04 12:46 | -8.83617 | -38.69111 | 30816 ft | 525 kts | 23° |
| 2026-05-04 12:47 | -8.76966 | -38.66047 | 30814 ft | 525 kts | 23° |
| 2026-05-04 12:47 | -8.70307 | -38.62996 | 30819 ft | 526 kts | 23° |
| 2026-05-04 12:48 | -8.63691 | -38.59961 | 30819 ft | 526 kts | 23° |
| 2026-05-04 12:48 | -8.57027 | -38.56902 | 30815 ft | 526 kts | 23° |
| 2026-05-04 12:49 | -8.50364 | -38.53845 | 30815 ft | 526 kts | 23° |
| 2026-05-04 12:49 | -8.43697 | -38.50788 | 30814 ft | 526 kts | 23° |
| 2026-05-04 12:50 | -8.37032 | -38.47733 | 30814 ft | 526 kts | 23° |
| 2026-05-04 12:50 | -8.30361 | -38.44676 | 30816 ft | 526 kts | 23° |
| 2026-05-04 12:51 | -8.23688 | -38.41619 | 30817 ft | 527 kts | 23° |
| 2026-05-04 12:51 | -8.17013 | -38.38562 | 30816 ft | 527 kts | 23° |
| 2026-05-04 12:52 | -8.10326 | -38.35499 | 30815 ft | 528 kts | 23° |
| 2026-05-04 12:52 | -8.03639 | -38.32438 | 30816 ft | 528 kts | 23° |
| 2026-05-04 12:53 | -7.96951 | -38.29377 | 30813 ft | 528 kts | 23° |
| 2026-05-04 12:53 | -7.90261 | -38.26316 | 30814 ft | 528 kts | 23° |
| 2026-05-04 12:54 | -7.83569 | -38.23255 | 30811 ft | 528 kts | 23° |
| 2026-05-04 12:54 | -7.76880 | -38.20198 | 30810 ft | 528 kts | 22° |
| 2026-05-04 12:55 | -7.70182 | -38.17142 | 30807 ft | 529 kts | 22° |
| 2026-05-04 12:55 | -7.64612 | -38.14603 | 30804 ft | 529 kts | 22° |
| 2026-05-04 12:56 | -7.57911 | -38.11548 | 30803 ft | 529 kts | 22° |
| 2026-05-04 12:56 | -7.51201 | -38.08489 | 30801 ft | 529 kts | 23° |
| 2026-05-04 12:57 | -7.44494 | -38.05432 | 30796 ft | 529 kts | 23° |
| 2026-05-04 12:57 | -7.37789 | -38.02378 | 30789 ft | 529 kts | 23° |
| 2026-05-04 12:58 | -7.31082 | -37.99324 | 30785 ft | 529 kts | 23° |
| 2026-05-04 12:58 | -7.24368 | -37.96268 | 30784 ft | 529 kts | 23° |
| 2026-05-04 12:59 | -7.17656 | -37.93213 | 30786 ft | 529 kts | 23° |
| 2026-05-04 12:59 | -7.10946 | -37.90158 | 30783 ft | 529 kts | 23° |
| 2026-05-04 13:00 | -7.04235 | -37.87101 | 30781 ft | 529 kts | 23° |
| 2026-05-04 13:00 | -6.97519 | -37.84042 | 30776 ft | 530 kts | 23° |
| 2026-05-04 13:01 | -6.90805 | -37.80985 | 30777 ft | 530 kts | 23° |
| 2026-05-04 13:01 | -6.84089 | -37.77928 | 30777 ft | 530 kts | 23° |
| 2026-05-04 13:02 | -6.77411 | -37.74898 | 30774 ft | 530 kts | 23° |
| 2026-05-04 13:02 | -6.70641 | -37.71841 | 30773 ft | 530 kts | 23° |
| 2026-05-04 13:03 | -6.63957 | -37.68826 | 30774 ft | 530 kts | 23° |
| 2026-05-04 13:03 | -6.57238 | -37.65793 | 30771 ft | 529 kts | 23° |
| 2026-05-04 13:04 | -6.50519 | -37.62762 | 30771 ft | 529 kts | 23° |
| 2026-05-04 13:04 | -6.43799 | -37.59730 | 30770 ft | 529 kts | 23° |
| 2026-05-04 13:05 | -6.37088 | -37.56703 | 30768 ft | 529 kts | 23° |
| 2026-05-04 13:05 | -6.30378 | -37.53678 | 30765 ft | 529 kts | 23° |
| 2026-05-04 13:06 | -6.23669 | -37.50654 | 30763 ft | 528 kts | 23° |
| 2026-05-04 13:06 | -6.16959 | -37.47630 | 30762 ft | 528 kts | 23° |
| 2026-05-04 13:07 | -6.10255 | -37.44610 | 30760 ft | 528 kts | 23° |
| 2026-05-04 13:07 | -6.03586 | -37.41524 | 30760 ft | 528 kts | 25° |
| 2026-05-04 13:08 | -5.96946 | -37.38364 | 30752 ft | 528 kts | 24° |
| 2026-05-04 13:08 | -5.90262 | -37.35316 | 30756 ft | 528 kts | 23° |
| 2026-05-04 13:09 | -5.83559 | -37.32295 | 30752 ft | 528 kts | 23° |
| 2026-05-04 13:09 | -5.76863 | -37.29271 | 30751 ft | 528 kts | 23° |
| 2026-05-04 13:10 | -5.70178 | -37.26225 | 30750 ft | 528 kts | 24° |
| 2026-05-04 13:10 | -5.63495 | -37.23165 | 30748 ft | 528 kts | 24° |
| 2026-05-04 13:11 | -5.56822 | -37.20110 | 30749 ft | 527 kts | 24° |
| 2026-05-04 13:11 | -5.50144 | -37.17057 | 30749 ft | 527 kts | 24° |
| 2026-05-04 13:12 | -5.43466 | -37.14005 | 30744 ft | 527 kts | 24° |
| 2026-05-04 13:12 | -5.36786 | -37.10951 | 30738 ft | 527 kts | 24° |
| 2026-05-04 13:13 | -5.30115 | -37.07902 | 30739 ft | 527 kts | 24° |
| 2026-05-04 13:13 | -5.23435 | -37.04849 | 30739 ft | 527 kts | 24° |
| 2026-05-04 13:14 | -5.16763 | -37.01800 | 30740 ft | 527 kts | 24° |
| 2026-05-04 13:14 | -5.10084 | -36.98749 | 30739 ft | 527 kts | 24° |
| 2026-05-04 13:15 | -5.03406 | -36.95700 | 30740 ft | 527 kts | 24° |
| 2026-05-04 13:15 | -4.96729 | -36.92651 | 30738 ft | 527 kts | 24° |
| 2026-05-04 13:16 | -4.90047 | -36.89601 | 30740 ft | 527 kts | 24° |
| 2026-05-04 13:16 | -4.83371 | -36.86554 | 30740 ft | 527 kts | 24° |
| 2026-05-04 13:17 | -4.76696 | -36.83508 | 30742 ft | 527 kts | 24° |
| 2026-05-04 13:17 | -4.70014 | -36.80461 | 30743 ft | 528 kts | 24° |
| 2026-05-04 13:18 | -4.63323 | -36.77426 | 30740 ft | 528 kts | 24° |
| 2026-05-04 13:18 | -4.56629 | -36.74398 | 30740 ft | 528 kts | 24° |
| 2026-05-04 13:19 | -4.49926 | -36.71366 | 30740 ft | 528 kts | 24° |
| 2026-05-04 13:19 | -4.43268 | -36.68353 | 30740 ft | 529 kts | 24° |
| 2026-05-04 13:20 | -4.36559 | -36.65317 | 30741 ft | 529 kts | 24° |
| 2026-05-04 13:20 | -4.29851 | -36.62282 | 30738 ft | 529 kts | 25° |
| 2026-05-04 13:21 | -4.23140 | -36.59247 | 30740 ft | 529 kts | 25° |
| 2026-05-04 13:21 | -4.16424 | -36.56210 | 30739 ft | 529 kts | 25° |
| 2026-05-04 13:22 | -4.09712 | -36.53175 | 30737 ft | 529 kts | 25° |
| 2026-05-04 13:22 | -4.02998 | -36.50141 | 30740 ft | 529 kts | 25° |
| 2026-05-04 13:23 | -3.96286 | -36.47107 | 30737 ft | 529 kts | 25° |
| 2026-05-04 13:23 | -3.89574 | -36.44072 | 30738 ft | 529 kts | 25° |
| 2026-05-04 13:24 | -3.82867 | -36.41036 | 30739 ft | 529 kts | 25° |
| 2026-05-04 13:24 | -3.76163 | -36.38001 | 30734 ft | 529 kts | 25° |
| 2026-05-04 13:25 | -3.66104 | -36.33447 | 30733 ft | 529 kts | 25° |
| 2026-05-04 13:25 | -3.59406 | -36.30416 | 30731 ft | 528 kts | 25° |
| 2026-05-04 13:26 | -3.52711 | -36.27387 | 30733 ft | 528 kts | 25° |
| 2026-05-04 13:26 | -3.46023 | -36.24360 | 30735 ft | 527 kts | 25° |
| 2026-05-04 13:27 | -3.39342 | -36.21337 | 30734 ft | 527 kts | 25° |
| 2026-05-04 13:27 | -3.32660 | -36.18316 | 30735 ft | 527 kts | 25° |
| 2026-05-04 13:28 | -3.25983 | -36.15298 | 30729 ft | 526 kts | 25° |
| 2026-05-04 13:28 | -3.19312 | -36.12282 | 30732 ft | 526 kts | 25° |
| 2026-05-04 13:29 | -3.12647 | -36.09264 | 30732 ft | 526 kts | 25° |
| 2026-05-04 13:29 | -3.05989 | -36.06242 | 30731 ft | 525 kts | 25° |
| 2026-05-04 13:30 | -2.99378 | -36.03243 | 30732 ft | 525 kts | 25° |
| 2026-05-04 13:30 | -2.92724 | -36.00225 | 30731 ft | 525 kts | 25° |
| 2026-05-04 13:31 | -2.86073 | -35.97210 | 30731 ft | 525 kts | 25° |
| 2026-05-04 13:31 | -2.79422 | -35.94196 | 30732 ft | 525 kts | 25° |
| 2026-05-04 13:32 | -2.72774 | -35.91180 | 30731 ft | 524 kts | 25° |
| 2026-05-04 13:32 | -2.66129 | -35.88167 | 30731 ft | 524 kts | 25° |
| 2026-05-04 13:33 | -2.59490 | -35.85160 | 30732 ft | 524 kts | 25° |
| 2026-05-04 13:33 | -2.52842 | -35.82149 | 30731 ft | 524 kts | 25° |
| 2026-05-04 13:34 | -2.46197 | -35.79137 | 30732 ft | 524 kts | 25° |
| 2026-05-04 13:34 | -2.39556 | -35.76120 | 30729 ft | 524 kts | 26° |
| 2026-05-04 13:35 | -2.29620 | -35.71557 | 30728 ft | 524 kts | 26° |
| 2026-05-04 13:36 | -2.23002 | -35.68513 | 30727 ft | 524 kts | 26° |
| 2026-05-04 13:36 | -2.16383 | -35.65471 | 30727 ft | 524 kts | 26° |
| 2026-05-04 13:37 | -2.09764 | -35.62430 | 30731 ft | 523 kts | 26° |
| 2026-05-04 13:37 | -2.03146 | -35.59391 | 30730 ft | 523 kts | 26° |
| 2026-05-04 13:38 | -1.96530 | -35.56353 | 30730 ft | 523 kts | 26° |
| 2026-05-04 13:38 | -1.89916 | -35.53315 | 30727 ft | 523 kts | 26° |
| 2026-05-04 13:39 | -1.83345 | -35.50298 | 30729 ft | 523 kts | 26° |
| 2026-05-04 13:39 | -1.76735 | -35.47263 | 30729 ft | 523 kts | 26° |
| 2026-05-04 13:40 | -1.70231 | -35.44015 | 30731 ft | 522 kts | 30° |
| 2026-05-04 13:40 | -1.63872 | -35.40518 | 30730 ft | 522 kts | 30° |
| 2026-05-04 13:41 | -1.57521 | -35.36995 | 30728 ft | 522 kts | 30° |
| 2026-05-04 13:41 | -1.51155 | -35.33503 | 30729 ft | 522 kts | 30° |
| 2026-05-04 13:42 | -1.41590 | -35.28286 | 30726 ft | 522 kts | 30° |
| 2026-05-04 13:42 | -1.36250 | -35.25374 | 30728 ft | 522 kts | 30° |
| 2026-05-04 13:43 | -1.29915 | -35.21918 | 30725 ft | 522 kts | 30° |
| 2026-05-04 13:43 | -1.23535 | -35.18436 | 30726 ft | 522 kts | 30° |
| 2026-05-04 13:44 | -1.17152 | -35.14953 | 30725 ft | 523 kts | 30° |
| 2026-05-04 13:44 | -1.10768 | -35.11470 | 30726 ft | 523 kts | 30° |
| 2026-05-04 13:45 | -1.04382 | -35.07986 | 30725 ft | 523 kts | 30° |
| 2026-05-04 13:45 | -0.97990 | -35.04496 | 30731 ft | 523 kts | 30° |
| 2026-05-04 13:46 | -0.91599 | -35.01001 | 30729 ft | 524 kts | 30° |
| 2026-05-04 13:46 | -0.85210 | -34.97506 | 30728 ft | 524 kts | 30° |
| 2026-05-04 13:47 | -0.78813 | -34.94007 | 30728 ft | 524 kts | 30° |
| 2026-05-04 13:47 | -0.72419 | -34.90510 | 30728 ft | 524 kts | 30° |
| 2026-05-04 13:48 | -0.66013 | -34.87006 | 30732 ft | 524 kts | 30° |
| 2026-05-04 13:48 | -0.59615 | -34.83508 | 30734 ft | 525 kts | 30° |
| 2026-05-04 13:49 | -0.53209 | -34.80005 | 30731 ft | 525 kts | 30° |
| 2026-05-04 13:49 | -0.46802 | -34.76501 | 30733 ft | 525 kts | 30° |
| 2026-05-04 13:50 | -0.40397 | -34.72999 | 30730 ft | 525 kts | 30° |
| 2026-05-04 13:50 | -0.33992 | -34.69497 | 30730 ft | 525 kts | 30° |
| 2026-05-04 13:51 | -0.27581 | -34.65990 | 30733 ft | 525 kts | 30° |
| 2026-05-04 13:51 | -0.21174 | -34.62475 | 30731 ft | 525 kts | 30° |
| 2026-05-04 13:52 | -0.11608 | -34.57220 | 30730 ft | 525 kts | 30° |
| 2026-05-04 13:53 | -0.05201 | -34.53701 | 30728 ft | 525 kts | 30° |
| 2026-05-04 13:53 | 0.01204 | -34.50183 | 30723 ft | 525 kts | 30° |
| 2026-05-04 13:54 | 0.10820 | -34.44902 | 30720 ft | 525 kts | 30° |
| 2026-05-04 13:55 | 0.20430 | -34.39624 | 30723 ft | 526 kts | 30° |
| 2026-05-04 13:55 | 0.26802 | -34.36126 | 30726 ft | 510 kts | 30° |
| 2026-05-04 13:55 | 0.29845 | -34.34458 | 30722 ft | 490 kts | 30° |
| 2026-05-04 13:56 | 0.35821 | -34.31175 | 30727 ft | 497 kts | 30° |
| 2026-05-04 13:56 | 0.41814 | -34.27882 | 31540 ft | 486 kts | 30° |
| 2026-05-04 13:57 | 0.44776 | -34.26254 | 31916 ft | 484 kts | 30° |
| 2026-05-04 13:57 | 0.47713 | -34.24626 | 32278 ft | 482 kts | 31° |
| 2026-05-04 13:58 | 0.56477 | -34.19717 | 32721 ft | 481 kts | 31° |
| 2026-05-04 13:58 | 0.65234 | -34.14808 | 32723 ft | 480 kts | 31° |
| 2026-05-04 13:59 | 0.71074 | -34.11538 | 32721 ft | 481 kts | 31° |
| 2026-05-04 14:00 | 0.79839 | -34.06629 | 32725 ft | 481 kts | 31° |
| 2026-05-04 14:00 | 0.88632 | -34.01754 | 32725 ft | 482 kts | 30° |
| 2026-05-04 14:01 | 0.94493 | -33.98563 | 32726 ft | 482 kts | 30° |
| 2026-05-04 14:02 | 1.03382 | -33.93724 | 32722 ft | 483 kts | 30° |
| 2026-05-04 14:02 | 1.09244 | -33.90528 | 32721 ft | 484 kts | 30° |
| 2026-05-04 14:03 | 1.15190 | -33.87285 | 32717 ft | 484 kts | 30° |
| 2026-05-04 14:03 | 1.21056 | -33.84085 | 32724 ft | 484 kts | 30° |
| 2026-05-04 14:04 | 1.29921 | -33.79250 | 32718 ft | 485 kts | 30° |
| 2026-05-04 14:04 | 1.35832 | -33.76026 | 32719 ft | 484 kts | 30° |
| 2026-05-04 14:05 | 1.44693 | -33.71192 | 32716 ft | 484 kts | 30° |
| 2026-05-04 14:06 | 1.50608 | -33.67965 | 32714 ft | 484 kts | 30° |
| 2026-05-04 14:06 | 1.56520 | -33.64738 | 32718 ft | 483 kts | 30° |
| 2026-05-04 14:07 | 1.62403 | -33.61454 | 32714 ft | 484 kts | 31° |
| 2026-05-04 14:07 | 1.68260 | -33.58129 | 32711 ft | 484 kts | 31° |
| 2026-05-04 14:08 | 1.74124 | -33.54810 | 32712 ft | 485 kts | 31° |
| 2026-05-04 14:08 | 1.80029 | -33.51563 | 32710 ft | 485 kts | 30° |
| 2026-05-04 14:09 | 1.88912 | -33.46731 | 32708 ft | 485 kts | 30° |
| 2026-05-04 14:10 | 1.97792 | -33.41889 | 32705 ft | 485 kts | 30° |
| 2026-05-04 14:10 | 2.03709 | -33.38659 | 32706 ft | 485 kts | 30° |
| 2026-05-04 14:11 | 2.09591 | -33.35448 | 32706 ft | 484 kts | 30° |
| 2026-05-04 14:11 | 2.18470 | -33.30600 | 32706 ft | 484 kts | 30° |
| 2026-05-04 14:12 | 2.24388 | -33.27368 | 32702 ft | 484 kts | 30° |
| 2026-05-04 14:13 | 2.33267 | -33.22520 | 32702 ft | 485 kts | 30° |
| 2026-05-04 14:13 | 2.39187 | -33.19287 | 32704 ft | 485 kts | 30° |
| 2026-05-04 14:14 | 2.45111 | -33.16051 | 32704 ft | 486 kts | 30° |
| 2026-05-04 14:14 | 2.53990 | -33.11183 | 32704 ft | 485 kts | 30° |
| 2026-05-04 14:15 | 2.65820 | -33.04684 | 32700 ft | 485 kts | 30° |
| 2026-05-04 14:16 | 2.74698 | -32.99807 | 32705 ft | 484 kts | 30° |
| 2026-05-04 14:17 | 2.83575 | -32.94931 | 32702 ft | 485 kts | 30° |
| 2026-05-04 14:18 | 2.92460 | -32.90049 | 32704 ft | 486 kts | 30° |
| 2026-05-04 14:19 | 3.04311 | -32.83536 | 32704 ft | 486 kts | 30° |
| 2026-05-04 14:19 | 3.10237 | -32.80279 | 32702 ft | 486 kts | 30° |
| 2026-05-04 14:20 | 3.16168 | -32.77018 | 32703 ft | 486 kts | 30° |
| 2026-05-04 14:20 | 3.22089 | -32.73744 | 32704 ft | 486 kts | 30° |
| 2026-05-04 14:21 | 3.30922 | -32.68748 | 32702 ft | 486 kts | 30° |
| 2026-05-04 14:21 | 3.36810 | -32.65410 | 32707 ft | 486 kts | 30° |
| 2026-05-04 14:22 | 3.42666 | -32.62100 | 32702 ft | 487 kts | 30° |
| 2026-05-04 14:22 | 3.48597 | -32.58824 | 32704 ft | 488 kts | 29° |
| 2026-05-04 14:23 | 3.57528 | -32.53949 | 32705 ft | 488 kts | 29° |
| 2026-05-04 14:24 | 3.63483 | -32.50693 | 32705 ft | 488 kts | 29° |
| 2026-05-04 14:24 | 3.69434 | -32.47435 | 32707 ft | 488 kts | 29° |
| 2026-05-04 14:25 | 3.75385 | -32.44175 | 32704 ft | 487 kts | 29° |
| 2026-05-04 14:25 | 3.84309 | -32.39286 | 32699 ft | 487 kts | 29° |
| 2026-05-04 14:26 | 3.90261 | -32.36025 | 32704 ft | 487 kts | 29° |
| 2026-05-04 14:26 | 3.96216 | -32.32762 | 32705 ft | 488 kts | 29° |
| 2026-05-04 14:27 | 4.02170 | -32.29498 | 32706 ft | 488 kts | 29° |
| 2026-05-04 14:27 | 4.08121 | -32.26236 | 32705 ft | 489 kts | 29° |
| 2026-05-04 14:28 | 4.14078 | -32.22970 | 32702 ft | 489 kts | 29° |
| 2026-05-04 14:28 | 4.20031 | -32.19698 | 32705 ft | 488 kts | 29° |
| 2026-05-04 14:29 | 4.30933 | -32.13687 | 32701 ft | 489 kts | 29° |
| 2026-05-04 14:30 | 4.36885 | -32.10406 | 32708 ft | 489 kts | 29° |
| 2026-05-04 14:31 | 4.45816 | -32.05483 | 32704 ft | 488 kts | 29° |
| 2026-05-04 14:32 | 4.57725 | -31.98915 | 32704 ft | 488 kts | 29° |
| 2026-05-04 14:32 | 4.63681 | -31.95629 | 32700 ft | 488 kts | 29° |
| 2026-05-04 14:33 | 4.69638 | -31.92343 | 32701 ft | 489 kts | 29° |
| 2026-05-04 14:33 | 4.75559 | -31.89075 | 32701 ft | 490 kts | 29° |
| 2026-05-04 14:34 | 4.81524 | -31.85783 | 32702 ft | 490 kts | 29° |
| 2026-05-04 14:34 | 4.87491 | -31.82489 | 32703 ft | 490 kts | 29° |
| 2026-05-04 14:35 | 4.93442 | -31.79167 | 32701 ft | 490 kts | 29° |
| 2026-05-04 14:35 | 4.99380 | -31.75811 | 32703 ft | 490 kts | 29° |
| 2026-05-04 14:36 | 5.05319 | -31.72451 | 32702 ft | 490 kts | 29° |
| 2026-05-04 14:36 | 5.11263 | -31.69092 | 32699 ft | 490 kts | 29° |
| 2026-05-04 14:37 | 5.17213 | -31.65732 | 32701 ft | 490 kts | 29° |
| 2026-05-04 14:37 | 5.23167 | -31.62376 | 32700 ft | 491 kts | 29° |
| 2026-05-04 14:38 | 5.29137 | -31.59040 | 32700 ft | 492 kts | 29° |
| 2026-05-04 14:38 | 5.35115 | -31.55708 | 32697 ft | 492 kts | 29° |
| 2026-05-04 14:39 | 5.41092 | -31.52374 | 32702 ft | 492 kts | 29° |
| 2026-05-04 14:39 | 5.47072 | -31.49035 | 32702 ft | 492 kts | 29° |
| 2026-05-04 14:40 | 5.56044 | -31.44023 | 32701 ft | 492 kts | 29° |
| 2026-05-04 14:40 | 5.62027 | -31.40681 | 32703 ft | 492 kts | 29° |
| 2026-05-04 14:41 | 5.68016 | -31.37334 | 32703 ft | 492 kts | 29° |
| 2026-05-04 14:42 | 5.79993 | -31.30638 | 32701 ft | 494 kts | 28° |
| 2026-05-04 14:42 | 5.85989 | -31.27285 | 32704 ft | 494 kts | 28° |
| 2026-05-04 14:43 | 5.91989 | -31.23929 | 32705 ft | 494 kts | 28° |
| 2026-05-04 14:43 | 5.97946 | -31.20592 | 32705 ft | 494 kts | 28° |
| 2026-05-04 14:44 | 6.03940 | -31.17229 | 32705 ft | 494 kts | 28° |
| 2026-05-04 14:44 | 6.09940 | -31.13863 | 32705 ft | 494 kts | 28° |
| 2026-05-04 14:45 | 6.15940 | -31.10497 | 32705 ft | 493 kts | 28° |
| 2026-05-04 14:45 | 6.21941 | -31.07130 | 32704 ft | 493 kts | 28° |
| 2026-05-04 14:46 | 6.27946 | -31.03759 | 32708 ft | 494 kts | 28° |
| 2026-05-04 14:46 | 6.33953 | -31.00387 | 32709 ft | 495 kts | 28° |
| 2026-05-04 14:47 | 6.39964 | -30.97011 | 32706 ft | 495 kts | 28° |
| 2026-05-04 14:47 | 6.45978 | -30.93633 | 32707 ft | 496 kts | 28° |
| 2026-05-04 14:48 | 6.51992 | -30.90253 | 32707 ft | 496 kts | 28° |
| 2026-05-04 14:48 | 6.58004 | -30.86874 | 32704 ft | 496 kts | 28° |
| 2026-05-04 14:49 | 6.64028 | -30.83487 | 32706 ft | 495 kts | 28° |
| 2026-05-04 14:49 | 6.70042 | -30.80102 | 32705 ft | 495 kts | 28° |
| 2026-05-04 14:50 | 6.76061 | -30.76705 | 32704 ft | 495 kts | 28° |
| 2026-05-04 14:50 | 6.82078 | -30.73308 | 32701 ft | 496 kts | 28° |
| 2026-05-04 14:51 | 6.88062 | -30.69930 | 32707 ft | 496 kts | 28° |
| 2026-05-04 14:51 | 6.94085 | -30.66530 | 32708 ft | 497 kts | 28° |
| 2026-05-04 14:52 | 7.00113 | -30.63126 | 32708 ft | 498 kts | 28° |
| 2026-05-04 14:52 | 7.06143 | -30.59720 | 32708 ft | 498 kts | 28° |
| 2026-05-04 14:53 | 7.12175 | -30.56312 | 32705 ft | 497 kts | 28° |
| 2026-05-04 14:53 | 7.18207 | -30.52902 | 32706 ft | 497 kts | 28° |
| 2026-05-04 14:54 | 7.24238 | -30.49493 | 32705 ft | 497 kts | 28° |
| 2026-05-04 14:54 | 7.30276 | -30.46078 | 32705 ft | 497 kts | 28° |
| 2026-05-04 14:55 | 7.36312 | -30.42663 | 32704 ft | 497 kts | 28° |
| 2026-05-04 14:55 | 7.42347 | -30.39244 | 32705 ft | 497 kts | 28° |
| 2026-05-04 14:56 | 7.48335 | -30.35837 | 32707 ft | 498 kts | 28° |
| 2026-05-04 14:56 | 7.54370 | -30.32402 | 32707 ft | 499 kts | 28° |
| 2026-05-04 14:57 | 7.60405 | -30.28967 | 32708 ft | 499 kts | 28° |
| 2026-05-04 14:57 | 7.66438 | -30.25533 | 32705 ft | 499 kts | 28° |
| 2026-05-04 14:58 | 7.72475 | -30.22097 | 32707 ft | 499 kts | 28° |
| 2026-05-04 14:58 | 7.78513 | -30.18658 | 32706 ft | 498 kts | 28° |
| 2026-05-04 14:59 | 7.84549 | -30.15219 | 32707 ft | 498 kts | 28° |
| 2026-05-04 15:00 | 7.93608 | -30.10056 | 32705 ft | 498 kts | 28° |
| 2026-05-04 15:00 | 7.99648 | -30.06611 | 32708 ft | 498 kts | 28° |
| 2026-05-04 15:01 | 8.08709 | -30.01442 | 32712 ft | 499 kts | 28° |
| 2026-05-04 15:01 | 8.14749 | -29.97984 | 32709 ft | 499 kts | 28° |
| 2026-05-04 15:02 | 8.20763 | -29.94484 | 32711 ft | 500 kts | 28° |
| 2026-05-04 15:02 | 8.26769 | -29.90975 | 32708 ft | 499 kts | 28° |
| 2026-05-04 15:03 | 8.32779 | -29.87468 | 32709 ft | 499 kts | 28° |
| 2026-05-04 15:03 | 8.38785 | -29.83965 | 32705 ft | 498 kts | 28° |
| 2026-05-04 15:04 | 8.44798 | -29.80458 | 32704 ft | 498 kts | 28° |
| 2026-05-04 15:04 | 8.50822 | -29.76970 | 32704 ft | 499 kts | 27° |
| 2026-05-04 15:05 | 8.56879 | -29.73531 | 32701 ft | 499 kts | 27° |
| 2026-05-04 15:05 | 8.62938 | -29.70105 | 32703 ft | 500 kts | 27° |
| 2026-05-04 15:06 | 8.68956 | -29.66694 | 32706 ft | 500 kts | 27° |
| 2026-05-04 15:07 | 8.78040 | -29.61536 | 32708 ft | 500 kts | 27° |
| 2026-05-04 15:07 | 8.84095 | -29.58096 | 32711 ft | 499 kts | 27° |
| 2026-05-04 15:08 | 8.90149 | -29.54656 | 32707 ft | 499 kts | 27° |
| 2026-05-04 15:08 | 8.96209 | -29.51212 | 32702 ft | 499 kts | 27° |
| 2026-05-04 15:09 | 9.02261 | -29.47770 | 32705 ft | 499 kts | 27° |
| 2026-05-04 15:09 | 9.08322 | -29.44322 | 32709 ft | 499 kts | 27° |
| 2026-05-04 15:10 | 9.17412 | -29.39148 | 32706 ft | 500 kts | 27° |
| 2026-05-04 15:11 | 9.26482 | -29.33945 | 32711 ft | 501 kts | 27° |
| 2026-05-04 15:11 | 9.32521 | -29.30445 | 32707 ft | 500 kts | 27° |
| 2026-05-04 15:12 | 9.38554 | -29.26951 | 32706 ft | 500 kts | 27° |
| 2026-05-04 15:12 | 9.44586 | -29.23460 | 32703 ft | 499 kts | 27° |
| 2026-05-04 15:13 | 9.50622 | -29.19966 | 32704 ft | 499 kts | 27° |
| 2026-05-04 15:13 | 9.56653 | -29.16474 | 32704 ft | 499 kts | 27° |
| 2026-05-04 15:14 | 9.62683 | -29.12980 | 32705 ft | 499 kts | 27° |
| 2026-05-04 15:14 | 9.68714 | -29.09484 | 32704 ft | 499 kts | 27° |
| 2026-05-04 15:15 | 9.74742 | -29.05989 | 32700 ft | 499 kts | 27° |
| 2026-05-04 15:15 | 9.80773 | -29.02497 | 32707 ft | 500 kts | 26° |
| 2026-05-04 15:16 | 9.89798 | -28.97327 | 32711 ft | 499 kts | 26° |
| 2026-05-04 15:17 | 9.98856 | -28.92148 | 32712 ft | 499 kts | 26° |
| 2026-05-04 15:17 | 10.07907 | -28.86964 | 32708 ft | 497 kts | 26° |
| 2026-05-04 15:18 | 10.13932 | -28.83511 | 32704 ft | 496 kts | 26° |
| 2026-05-04 15:19 | 10.22960 | -28.78334 | 32707 ft | 496 kts | 25° |
| 2026-05-04 15:19 | 10.30961 | -28.73744 | 32708 ft | 495 kts | 25° |
| 2026-05-04 15:20 | 10.36965 | -28.70298 | 32709 ft | 495 kts | 25° |
| 2026-05-04 15:20 | 10.42961 | -28.66854 | 32710 ft | 494 kts | 25° |
| 2026-05-04 15:21 | 10.48952 | -28.63412 | 32708 ft | 494 kts | 25° |
| 2026-05-04 15:22 | 10.57928 | -28.58244 | 32707 ft | 494 kts | 25° |
| 2026-05-04 15:22 | 10.66887 | -28.53080 | 32708 ft | 494 kts | 25° |
| 2026-05-04 15:23 | 10.72853 | -28.49642 | 32708 ft | 494 kts | 25° |
| 2026-05-04 15:23 | 10.78819 | -28.46202 | 32708 ft | 493 kts | 25° |
| 2026-05-04 15:24 | 10.90754 | -28.39317 | 32707 ft | 493 kts | 25° |
| 2026-05-04 15:25 | 10.96724 | -28.35870 | 32708 ft | 493 kts | 25° |
| 2026-05-04 15:26 | 11.05683 | -28.30694 | 32699 ft | 493 kts | 25° |
| 2026-05-04 15:26 | 11.14645 | -28.25513 | 32713 ft | 495 kts | 25° |
| 2026-05-04 15:27 | 11.23608 | -28.20327 | 32717 ft | 494 kts | 25° |
| 2026-05-04 15:28 | 11.32566 | -28.15129 | 32699 ft | 493 kts | 25° |
| 2026-05-04 15:29 | 11.41526 | -28.09927 | 32702 ft | 495 kts | 25° |
| 2026-05-04 15:30 | 11.62451 | -27.97770 | 32707 ft | 494 kts | 25° |
| 2026-05-04 15:31 | 11.71411 | -27.92559 | 32714 ft | 494 kts | 24° |
| 2026-05-04 15:32 | 11.86313 | -27.83882 | 32705 ft | 495 kts | 24° |
| 2026-05-04 15:34 | 12.01252 | -27.75166 | 32704 ft | 495 kts | 24° |
| 2026-05-04 15:34 | 12.10204 | -27.69926 | 32705 ft | 494 kts | 24° |
| 2026-05-04 15:35 | 12.19155 | -27.64686 | 32709 ft | 494 kts | 24° |
| 2026-05-04 15:36 | 12.28110 | -27.59442 | 32705 ft | 493 kts | 24° |
| 2026-05-04 15:36 | 12.34073 | -27.55947 | 32706 ft | 494 kts | 24° |
| 2026-05-04 15:37 | 12.40042 | -27.52447 | 32704 ft | 495 kts | 24° |
| 2026-05-04 15:37 | 12.46007 | -27.48948 | 32715 ft | 495 kts | 24° |
| 2026-05-04 15:38 | 12.51970 | -27.45448 | 32711 ft | 495 kts | 24° |
| 2026-05-04 15:38 | 12.57934 | -27.41945 | 32711 ft | 494 kts | 24° |
| 2026-05-04 15:39 | 12.63895 | -27.38442 | 32707 ft | 494 kts | 24° |
| 2026-05-04 15:40 | 12.72846 | -27.33173 | 32706 ft | 494 kts | 24° |
| 2026-05-04 15:40 | 12.78808 | -27.29650 | 32706 ft | 494 kts | 24° |
| 2026-05-04 15:41 | 12.84768 | -27.26128 | 32707 ft | 495 kts | 24° |
| 2026-05-04 15:41 | 12.90692 | -27.22628 | 32708 ft | 495 kts | 24° |
| 2026-05-04 15:42 | 12.96656 | -27.19103 | 32710 ft | 496 kts | 24° |
| 2026-05-04 15:42 | 13.02624 | -27.15574 | 32709 ft | 495 kts | 24° |
| 2026-05-04 15:43 | 13.08582 | -27.12049 | 32711 ft | 495 kts | 24° |
| 2026-05-04 15:43 | 13.14553 | -27.08513 | 32710 ft | 495 kts | 24° |
| 2026-05-04 15:44 | 13.20524 | -27.04976 | 32708 ft | 495 kts | 24° |
| 2026-05-04 15:44 | 13.26501 | -27.01433 | 32711 ft | 496 kts | 24° |
| 2026-05-04 15:45 | 13.32477 | -26.97889 | 32710 ft | 497 kts | 24° |
| 2026-05-04 15:45 | 13.38463 | -26.94336 | 32713 ft | 498 kts | 24° |
| 2026-05-04 15:46 | 13.44449 | -26.90776 | 32710 ft | 498 kts | 24° |
| 2026-05-04 15:46 | 13.50425 | -26.87204 | 32709 ft | 497 kts | 24° |
| 2026-05-04 15:47 | 13.56410 | -26.83624 | 32710 ft | 497 kts | 24° |
| 2026-05-04 15:47 | 13.62393 | -26.80046 | 32709 ft | 497 kts | 24° |
| 2026-05-04 15:48 | 13.68377 | -26.76467 | 32710 ft | 497 kts | 24° |
| 2026-05-04 15:48 | 13.77364 | -26.71088 | 32711 ft | 498 kts | 24° |
| 2026-05-04 15:49 | 13.83314 | -26.67524 | 32708 ft | 499 kts | 24° |
| 2026-05-04 15:49 | 13.89301 | -26.63935 | 32710 ft | 499 kts | 24° |
| 2026-05-04 15:50 | 13.95290 | -26.60344 | 32709 ft | 499 kts | 24° |
| 2026-05-04 15:50 | 14.01281 | -26.56749 | 32707 ft | 498 kts | 24° |
| 2026-05-04 15:51 | 14.07270 | -26.53152 | 32707 ft | 498 kts | 24° |
| 2026-05-04 15:51 | 14.13263 | -26.49551 | 32705 ft | 498 kts | 25° |
| 2026-05-04 15:52 | 14.19232 | -26.45900 | 32706 ft | 499 kts | 25° |
| 2026-05-04 15:52 | 14.25191 | -26.42199 | 32711 ft | 500 kts | 25° |
| 2026-05-04 15:53 | 14.31150 | -26.38499 | 32712 ft | 501 kts | 25° |
| 2026-05-04 15:53 | 14.37123 | -26.34826 | 32712 ft | 500 kts | 25° |
| 2026-05-04 15:54 | 14.43136 | -26.31235 | 32714 ft | 500 kts | 24° |
| 2026-05-04 15:54 | 14.49160 | -26.27662 | 32719 ft | 499 kts | 24° |
| 2026-05-04 15:55 | 14.55182 | -26.24078 | 32715 ft | 499 kts | 24° |
| 2026-05-04 15:55 | 14.61206 | -26.20484 | 32702 ft | 499 kts | 24° |
| 2026-05-04 15:56 | 14.67226 | -26.16889 | 32702 ft | 500 kts | 24° |
| 2026-05-04 15:56 | 14.73202 | -26.13319 | 32705 ft | 500 kts | 25° |
| 2026-05-04 15:57 | 14.79225 | -26.09718 | 32708 ft | 501 kts | 25° |
| 2026-05-04 15:57 | 14.85249 | -26.06115 | 32719 ft | 500 kts | 25° |
| 2026-05-04 15:58 | 14.91271 | -26.02510 | 32708 ft | 500 kts | 25° |
| 2026-05-04 15:58 | 14.97298 | -25.98900 | 32713 ft | 500 kts | 25° |
| 2026-05-04 15:59 | 15.03321 | -25.95290 | 32710 ft | 500 kts | 25° |
| 2026-05-04 15:59 | 15.09340 | -25.91677 | 32713 ft | 501 kts | 25° |
| 2026-05-04 16:00 | 15.15360 | -25.88052 | 32711 ft | 501 kts | 25° |
| 2026-05-04 16:00 | 15.21388 | -25.84423 | 32716 ft | 502 kts | 25° |
| 2026-05-04 16:01 | 15.27414 | -25.80795 | 32719 ft | 501 kts | 25° |
| 2026-05-04 16:01 | 15.33437 | -25.77166 | 32715 ft | 501 kts | 25° |
| 2026-05-04 16:02 | 15.39456 | -25.73538 | 32715 ft | 500 kts | 25° |
| 2026-05-04 16:03 | 15.48485 | -25.68091 | 32717 ft | 500 kts | 25° |
| 2026-05-04 16:03 | 15.53993 | -25.64766 | 32716 ft | 500 kts | 25° |
| 2026-05-04 16:04 | 15.60010 | -25.61130 | 32716 ft | 500 kts | 25° |
| 2026-05-04 16:04 | 15.69036 | -25.55672 | 32715 ft | 500 kts | 25° |
| 2026-05-04 16:05 | 15.75054 | -25.52029 | 32713 ft | 500 kts | 25° |
| 2026-05-04 16:06 | 15.84071 | -25.46557 | 32713 ft | 501 kts | 26° |
| 2026-05-04 16:07 | 15.95079 | -25.39858 | 32719 ft | 500 kts | 26° |
| 2026-05-04 16:08 | 16.07109 | -25.32535 | 32716 ft | 501 kts | 26° |
| 2026-05-04 16:09 | 16.22135 | -25.23374 | 32712 ft | 501 kts | 26° |
| 2026-05-04 16:10 | 16.34110 | -25.16061 | 32701 ft | 501 kts | 26° |
| 2026-05-04 16:11 | 16.46128 | -25.08712 | 32702 ft | 500 kts | 26° |
| 2026-05-04 16:12 | 16.64118 | -24.97650 | 32696 ft | 499 kts | 26° |
| 2026-05-04 16:13 | 16.76102 | -24.90267 | 32698 ft | 500 kts | 27° |
| 2026-05-04 16:14 | 16.88076 | -24.82879 | 32695 ft | 500 kts | 27° |
| 2026-05-04 16:16 | 17.03026 | -24.73640 | 32716 ft | 500 kts | 27° |
| 2026-05-04 16:17 | 17.17963 | -24.64392 | 32720 ft | 499 kts | 27° |
| 2026-05-04 16:18 | 17.29888 | -24.56940 | 32717 ft | 499 kts | 27° |
| 2026-05-04 16:19 | 17.44746 | -24.47552 | 32718 ft | 498 kts | 27° |
| 2026-05-04 16:20 | 17.59636 | -24.38143 | 32721 ft | 503 kts | 27° |
| 2026-05-04 16:22 | 17.74636 | -24.28667 | 32718 ft | 504 kts | 27° |
| 2026-05-04 16:23 | 17.92781 | -24.17420 | 32717 ft | 506 kts | 27° |
| 2026-05-04 16:25 | 18.10923 | -24.06142 | 32721 ft | 505 kts | 27° |
| 2026-05-04 16:26 | 18.32066 | -23.92963 | 32721 ft | 504 kts | 27° |
| 2026-05-04 16:28 | 18.47163 | -23.83522 | 32719 ft | 504 kts | 27° |
| 2026-05-04 16:29 | 18.68341 | -23.70227 | 32720 ft | 508 kts | 27° |
| 2026-05-04 16:31 | 18.83505 | -23.60690 | 32717 ft | 508 kts | 27° |
| 2026-05-04 16:32 | 19.01720 | -23.49207 | 32714 ft | 508 kts | 27° |
| 2026-05-04 16:33 | 19.13878 | -23.41526 | 32705 ft | 508 kts | 27° |
| 2026-05-04 16:34 | 19.22949 | -23.35767 | 32710 ft | 508 kts | 27° |
| 2026-05-04 16:35 | 19.41180 | -23.24182 | 32710 ft | 510 kts | 27° |
| 2026-05-04 16:36 | 19.50299 | -23.18379 | 32713 ft | 510 kts | 27° |
| 2026-05-04 16:37 | 19.59419 | -23.12567 | 32715 ft | 511 kts | 27° |
| 2026-05-04 16:38 | 19.71570 | -23.04811 | 32715 ft | 510 kts | 27° |
| 2026-05-04 16:39 | 19.86720 | -22.95120 | 32715 ft | 509 kts | 27° |
| 2026-05-04 16:40 | 19.98894 | -22.87282 | 32714 ft | 509 kts | 27° |
| 2026-05-04 16:41 | 20.14040 | -22.77526 | 32720 ft | 510 kts | 27° |
| 2026-05-04 16:43 | 20.29225 | -22.67723 | 32720 ft | 508 kts | 27° |
| 2026-05-04 16:43 | 20.38278 | -22.61868 | 32717 ft | 508 kts | 27° |
| 2026-05-04 16:45 | 20.56399 | -22.50126 | 32713 ft | 509 kts | 27° |
| 2026-05-04 16:46 | 20.71479 | -22.40266 | 32713 ft | 508 kts | 27° |
| 2026-05-04 16:47 | 20.83555 | -22.32358 | 32701 ft | 509 kts | 27° |
| 2026-05-04 16:48 | 20.95648 | -22.24427 | 32711 ft | 509 kts | 27° |
| 2026-05-04 16:49 | 21.07716 | -22.16496 | 32709 ft | 511 kts | 27° |
| 2026-05-04 16:50 | 21.19833 | -22.08518 | 32718 ft | 512 kts | 27° |
| 2026-05-04 16:51 | 21.28926 | -22.02515 | 32712 ft | 513 kts | 27° |
| 2026-05-04 16:52 | 21.40945 | -21.94259 | 32711 ft | 513 kts | 27° |
| 2026-05-04 16:53 | 21.50087 | -21.88296 | 32711 ft | 512 kts | 26° |
| 2026-05-04 16:54 | 21.61245 | -21.81004 | 32711 ft | 514 kts | 26° |
| 2026-05-04 16:55 | 21.79540 | -21.68982 | 32711 ft | 513 kts | 27° |
| 2026-05-04 16:56 | 21.94792 | -21.58935 | 32710 ft | 514 kts | 27° |
| 2026-05-04 16:57 | 22.03951 | -21.52889 | 32712 ft | 515 kts | 27° |
| 2026-05-04 16:58 | 22.16162 | -21.44776 | 32713 ft | 517 kts | 27° |
| 2026-05-04 17:00 | 22.34497 | -21.32564 | 32713 ft | 516 kts | 27° |
| 2026-05-04 17:01 | 22.49796 | -21.22350 | 32715 ft | 517 kts | 27° |
| 2026-05-04 17:02 | 22.62042 | -21.14153 | 32711 ft | 517 kts | 27° |
| 2026-05-04 17:03 | 22.71198 | -21.08014 | 32712 ft | 519 kts | 27° |
| 2026-05-04 17:03 | 22.80386 | -21.01823 | 32716 ft | 520 kts | 27° |
| 2026-05-04 17:04 | 22.92588 | -20.93426 | 32716 ft | 520 kts | 28° |
| 2026-05-04 17:05 | 23.04799 | -20.85022 | 32715 ft | 520 kts | 27° |
| 2026-05-04 17:06 | 23.14003 | -20.78775 | 32716 ft | 519 kts | 27° |
| 2026-05-04 17:07 | 23.22193 | -20.73269 | 32720 ft | 521 kts | 27° |
| 2026-05-04 17:07 | 23.29388 | -20.68417 | 32706 ft | 520 kts | 27° |
| 2026-05-04 17:08 | 23.38623 | -20.62175 | 32712 ft | 521 kts | 27° |
| 2026-05-04 17:09 | 23.44782 | -20.58007 | 32718 ft | 522 kts | 27° |
| 2026-05-04 17:09 | 23.50942 | -20.53834 | 32721 ft | 522 kts | 27° |
| 2026-05-04 17:10 | 23.66351 | -20.43374 | 32714 ft | 521 kts | 27° |
| 2026-05-04 17:11 | 23.72452 | -20.39224 | 32720 ft | 520 kts | 27° |
| 2026-05-04 17:12 | 23.81656 | -20.32939 | 32722 ft | 519 kts | 27° |
| 2026-05-04 17:13 | 23.96981 | -20.22428 | 32719 ft | 520 kts | 27° |
| 2026-05-04 17:14 | 24.09247 | -20.14008 | 32728 ft | 521 kts | 27° |
| 2026-05-04 17:15 | 24.18450 | -20.07676 | 32731 ft | 522 kts | 27° |
| 2026-05-04 17:16 | 24.30720 | -19.99217 | 32731 ft | 522 kts | 27° |
| 2026-05-04 17:17 | 24.42997 | -19.90734 | 32732 ft | 521 kts | 27° |
| 2026-05-04 17:18 | 24.55199 | -19.82213 | 32736 ft | 521 kts | 28° |
| 2026-05-04 17:19 | 24.67415 | -19.73603 | 32736 ft | 521 kts | 28° |
| 2026-05-04 17:20 | 24.79639 | -19.64985 | 32736 ft | 523 kts | 28° |
| 2026-05-04 17:20 | 24.88800 | -19.58512 | 32738 ft | 522 kts | 28° |
| 2026-05-04 17:21 | 25.01012 | -19.49872 | 32743 ft | 522 kts | 27° |
| 2026-05-04 17:22 | 25.07133 | -19.45579 | 32742 ft | 521 kts | 27° |
| 2026-05-04 17:23 | 25.19390 | -19.37016 | 32745 ft | 520 kts | 27° |
| 2026-05-04 17:24 | 25.28573 | -19.30581 | 32750 ft | 521 kts | 27° |
| 2026-05-04 17:25 | 25.40810 | -19.21987 | 32750 ft | 522 kts | 27° |
| 2026-05-04 17:26 | 25.53043 | -19.13376 | 32757 ft | 522 kts | 27° |
| 2026-05-04 17:26 | 25.62202 | -19.06913 | 33467 ft | 523 kts | 27° |
| 2026-05-04 17:27 | 25.68353 | -19.02570 | 34079 ft | 525 kts | 27° |
| 2026-05-04 17:27 | 25.74491 | -18.98176 | 34650 ft | 525 kts | 28° |
| 2026-05-04 17:28 | 25.80668 | -18.93700 | 34752 ft | 535 kts | 28° |
| 2026-05-04 17:29 | 25.90083 | -18.86877 | 34763 ft | 546 kts | 28° |
| 2026-05-04 17:29 | 25.99678 | -18.79936 | 34759 ft | 551 kts | 28° |
| 2026-05-04 17:31 | 26.15895 | -18.68379 | 34763 ft | 556 kts | 28° |
| 2026-05-04 17:32 | 26.32182 | -18.56730 | 34759 ft | 557 kts | 28° |
| 2026-05-04 17:33 | 26.45227 | -18.47371 | 34771 ft | 558 kts | 28° |
| 2026-05-04 17:34 | 26.54966 | -18.40362 | 34768 ft | 543 kts | 28° |
| 2026-05-04 17:34 | 26.58112 | -18.38088 | 34767 ft | 534 kts | 28° |
| 2026-05-04 17:35 | 26.73752 | -18.26790 | 34773 ft | 535 kts | 28° |
| 2026-05-04 17:36 | 26.80004 | -18.22245 | 34775 ft | 535 kts | 28° |
| 2026-05-04 17:36 | 26.86253 | -18.17704 | 34774 ft | 536 kts | 28° |
| 2026-05-04 17:37 | 26.92513 | -18.13152 | 34781 ft | 537 kts | 28° |
| 2026-05-04 17:37 | 26.98769 | -18.08597 | 34769 ft | 537 kts | 28° |
| 2026-05-04 17:38 | 27.04980 | -18.04068 | 34783 ft | 537 kts | 28° |
| 2026-05-04 17:38 | 27.11233 | -17.99503 | 34783 ft | 537 kts | 28° |
| 2026-05-04 17:39 | 27.20607 | -17.92647 | 34778 ft | 536 kts | 28° |
| 2026-05-04 17:39 | 27.26855 | -17.88069 | 34786 ft | 536 kts | 28° |
| 2026-05-04 17:40 | 27.33101 | -17.83487 | 34775 ft | 536 kts | 28° |
| 2026-05-04 17:40 | 27.39344 | -17.78888 | 34779 ft | 536 kts | 28° |
| 2026-05-04 17:41 | 27.45564 | -17.74247 | 34784 ft | 536 kts | 28° |
| 2026-05-04 17:41 | 27.51784 | -17.69600 | 34789 ft | 536 kts | 28° |
| 2026-05-04 17:42 | 27.56957 | -17.65738 | 34787 ft | 536 kts | 28° |